sensor_id;sensor_type;location;lat;lon;timestamp;P1;durP1;ratioP1;P2;durP2;ratioP2
8978;SDS011;4524;51.364;5.448;2023-11-21T00:00:03;9.63;;;5.90;;
8978;SDS011;4524;51.364;5.448;2023-11-21T00:02:38;11.50;;;5.95;;
8978;SDS011;4524;51.364;5.448;2023-11-21T00:07:36;9.50;;;5.10;;
8978;SDS011;4524;51.364;5.448;2023-11-21T00:10:05;9.15;;;5.65;;
8978;SDS011;4524;51.364;5.448;2023-11-21T00:12:34;8.80;;;5.60;;
8978;SDS011;4524;51.364;5.448;2023-11-21T00:15:03;11.35;;;5.65;;
8978;SDS011;4524;51.364;5.448;2023-11-21T00:17:35;10.13;;;5.47;;
8978;SDS011;4524;51.364;5.448;2023-11-21T00:20:05;9.43;;;5.50;;
8978;SDS011;4524;51.364;5.448;2023-11-21T00:22:35;11.07;;;6.32;;
8978;SDS011;4524;51.364;5.448;2023-11-21T00:25:04;8.85;;;5.47;;
8978;SDS011;4524;51.364;5.448;2023-11-21T00:27:35;12.10;;;5.70;;
8978;SDS011;4524;51.364;5.448;2023-11-21T00:30:03;8.82;;;5.13;;
8978;SDS011;4524;51.364;5.448;2023-11-21T00:32:32;12.93;;;5.03;;
8978;SDS011;4524;51.364;5.448;2023-11-21T00:35:00;13.55;;;5.70;;
8978;SDS011;4524;51.364;5.448;2023-11-21T00:37:29;12.55;;;6.32;;
8978;SDS011;4524;51.364;5.448;2023-11-21T00:39:59;8.80;;;5.13;;
8978;SDS011;4524;51.364;5.448;2023-11-21T00:42:31;11.02;;;5.82;;
8978;SDS011;4524;51.364;5.448;2023-11-21T00:45:00;13.50;;;5.72;;
8978;SDS011;4524;51.364;5.448;2023-11-21T00:47:28;10.60;;;5.10;;
8978;SDS011;4524;51.364;5.448;2023-11-21T00:49:56;14.25;;;5.28;;
8978;SDS011;4524;51.364;5.448;2023-11-21T00:52:24;9.55;;;5.50;;
8978;SDS011;4524;51.364;5.448;2023-11-21T00:55:13;8.77;;;5.30;;
8978;SDS011;4524;51.364;5.448;2023-11-21T00:57:42;9.25;;;5.30;;
8978;SDS011;4524;51.364;5.448;2023-11-21T01:00:10;6.93;;;4.43;;
8978;SDS011;4524;51.364;5.448;2023-11-21T01:02:40;9.30;;;5.38;;
8978;SDS011;4524;51.364;5.448;2023-11-21T01:05:10;8.75;;;5.47;;
8978;SDS011;4524;51.364;5.448;2023-11-21T01:07:38;10.43;;;5.25;;
8978;SDS011;4524;51.364;5.448;2023-11-21T01:10:06;8.20;;;5.45;;
8978;SDS011;4524;51.364;5.448;2023-11-21T01:12:36;9.68;;;5.28;;
8978;SDS011;4524;51.364;5.448;2023-11-21T01:15:05;8.23;;;4.50;;
8978;SDS011;4524;51.364;5.448;2023-11-21T01:17:35;9.25;;;5.07;;
8978;SDS011;4524;51.364;5.448;2023-11-21T01:20:03;9.55;;;5.43;;
8978;SDS011;4524;51.364;5.448;2023-11-21T01:22:37;7.10;;;4.38;;
8978;SDS011;4524;51.364;5.448;2023-11-21T01:25:05;10.60;;;5.75;;
8978;SDS011;4524;51.364;5.448;2023-11-21T01:27:34;9.77;;;4.32;;
8978;SDS011;4524;51.364;5.448;2023-11-21T01:30:05;7.88;;;4.93;;
8978;SDS011;4524;51.364;5.448;2023-11-21T01:32:36;8.88;;;5.53;;
8978;SDS011;4524;51.364;5.448;2023-11-21T01:35:05;18.17;;;7.18;;
8978;SDS011;4524;51.364;5.448;2023-11-21T01:37:36;10.70;;;6.13;;
8978;SDS011;4524;51.364;5.448;2023-11-21T01:40:05;9.55;;;5.90;;
8978;SDS011;4524;51.364;5.448;2023-11-21T01:42:37;31.67;;;5.82;;
8978;SDS011;4524;51.364;5.448;2023-11-21T01:45:07;14.15;;;6.25;;
8978;SDS011;4524;51.364;5.448;2023-11-21T01:47:36;7.93;;;5.47;;
8978;SDS011;4524;51.364;5.448;2023-11-21T01:50:06;9.02;;;5.30;;
8978;SDS011;4524;51.364;5.448;2023-11-21T01:52:35;10.32;;;5.70;;
8978;SDS011;4524;51.364;5.448;2023-11-21T01:55:03;10.45;;;5.30;;
8978;SDS011;4524;51.364;5.448;2023-11-21T01:57:35;8.90;;;5.15;;
8978;SDS011;4524;51.364;5.448;2023-11-21T02:00:04;7.90;;;5.18;;
8978;SDS011;4524;51.364;5.448;2023-11-21T02:02:42;8.85;;;5.57;;
8978;SDS011;4524;51.364;5.448;2023-11-21T02:05:11;13.68;;;6.68;;
8978;SDS011;4524;51.364;5.448;2023-11-21T02:07:40;14.40;;;5.57;;
8978;SDS011;4524;51.364;5.448;2023-11-21T02:10:11;11.38;;;6.10;;
8978;SDS011;4524;51.364;5.448;2023-11-21T02:12:41;8.50;;;5.32;;
8978;SDS011;4524;51.364;5.448;2023-11-21T02:15:11;9.43;;;4.93;;
8978;SDS011;4524;51.364;5.448;2023-11-21T02:17:46;9.82;;;4.88;;
8978;SDS011;4524;51.364;5.448;2023-11-21T02:20:18;10.57;;;5.95;;
8978;SDS011;4524;51.364;5.448;2023-11-21T02:22:49;13.07;;;5.68;;
8978;SDS011;4524;51.364;5.448;2023-11-21T02:25:24;21.77;;;6.47;;
8978;SDS011;4524;51.364;5.448;2023-11-21T02:27:52;26.02;;;8.32;;
8978;SDS011;4524;51.364;5.448;2023-11-21T02:30:21;22.63;;;7.03;;
8978;SDS011;4524;51.364;5.448;2023-11-21T02:32:51;41.00;;;9.43;;
8978;SDS011;4524;51.364;5.448;2023-11-21T02:35:19;29.35;;;8.25;;
8978;SDS011;4524;51.364;5.448;2023-11-21T02:37:49;75.60;;;10.23;;
8978;SDS011;4524;51.364;5.448;2023-11-21T02:40:18;50.80;;;9.40;;
8978;SDS011;4524;51.364;5.448;2023-11-21T02:42:47;28.13;;;8.18;;
8978;SDS011;4524;51.364;5.448;2023-11-21T02:45:18;57.65;;;9.23;;
8978;SDS011;4524;51.364;5.448;2023-11-21T02:47:49;44.95;;;8.48;;
8978;SDS011;4524;51.364;5.448;2023-11-21T02:50:19;79.10;;;9.43;;
8978;SDS011;4524;51.364;5.448;2023-11-21T02:52:51;51.75;;;8.73;;
8978;SDS011;4524;51.364;5.448;2023-11-21T02:55:20;34.35;;;8.82;;
8978;SDS011;4524;51.364;5.448;2023-11-21T02:57:48;31.35;;;9.23;;
8978;SDS011;4524;51.364;5.448;2023-11-21T03:00:37;27.17;;;7.53;;
8978;SDS011;4524;51.364;5.448;2023-11-21T03:03:06;61.63;;;10.23;;
8978;SDS011;4524;51.364;5.448;2023-11-21T03:05:34;46.35;;;8.65;;
8978;SDS011;4524;51.364;5.448;2023-11-21T03:08:04;66.55;;;9.13;;
8978;SDS011;4524;51.364;5.448;2023-11-21T03:10:32;48.75;;;8.73;;
8978;SDS011;4524;51.364;5.448;2023-11-21T03:13:00;36.13;;;9.10;;
8978;SDS011;4524;51.364;5.448;2023-11-21T03:15:30;48.03;;;8.45;;
8978;SDS011;4524;51.364;5.448;2023-11-21T03:17:58;63.35;;;8.82;;
8978;SDS011;4524;51.364;5.448;2023-11-21T03:20:46;56.45;;;8.52;;
8978;SDS011;4524;51.364;5.448;2023-11-21T03:23:15;39.45;;;8.05;;
8978;SDS011;4524;51.364;5.448;2023-11-21T03:25:43;38.08;;;8.18;;
8978;SDS011;4524;51.364;5.448;2023-11-21T03:28:32;28.65;;;7.97;;
8978;SDS011;4524;51.364;5.448;2023-11-21T03:31:01;45.60;;;8.55;;
8978;SDS011;4524;51.364;5.448;2023-11-21T03:33:29;24.50;;;7.75;;
8978;SDS011;4524;51.364;5.448;2023-11-21T03:35:57;28.85;;;7.55;;
8978;SDS011;4524;51.364;5.448;2023-11-21T03:38:26;31.25;;;7.68;;
8978;SDS011;4524;51.364;5.448;2023-11-21T03:40:55;46.67;;;7.50;;
8978;SDS011;4524;51.364;5.448;2023-11-21T03:43:23;17.73;;;7.38;;
8978;SDS011;4524;51.364;5.448;2023-11-21T03:45:52;44.08;;;7.32;;
8978;SDS011;4524;51.364;5.448;2023-11-21T03:48:19;23.73;;;7.28;;
8978;SDS011;4524;51.364;5.448;2023-11-21T03:50:48;26.38;;;7.22;;
8978;SDS011;4524;51.364;5.448;2023-11-21T03:53:15;38.97;;;8.05;;
8978;SDS011;4524;51.364;5.448;2023-11-21T03:55:45;36.25;;;7.75;;
8978;SDS011;4524;51.364;5.448;2023-11-21T03:58:13;38.60;;;8.13;;
8978;SDS011;4524;51.364;5.448;2023-11-21T04:00:41;18.42;;;6.90;;
8978;SDS011;4524;51.364;5.448;2023-11-21T04:03:09;28.77;;;7.70;;
8978;SDS011;4524;51.364;5.448;2023-11-21T04:05:37;45.97;;;7.85;;
8978;SDS011;4524;51.364;5.448;2023-11-21T04:08:05;34.95;;;8.85;;
8978;SDS011;4524;51.364;5.448;2023-11-21T04:10:33;33.28;;;7.70;;
8978;SDS011;4524;51.364;5.448;2023-11-21T04:13:02;37.45;;;8.55;;
8978;SDS011;4524;51.364;5.448;2023-11-21T04:15:31;49.25;;;8.30;;
8978;SDS011;4524;51.364;5.448;2023-11-21T04:17:59;29.33;;;6.88;;
8978;SDS011;4524;51.364;5.448;2023-11-21T04:20:27;63.13;;;9.15;;
8978;SDS011;4524;51.364;5.448;2023-11-21T04:22:55;38.60;;;8.13;;
8978;SDS011;4524;51.364;5.448;2023-11-21T04:25:23;50.58;;;7.97;;
8978;SDS011;4524;51.364;5.448;2023-11-21T04:27:51;32.10;;;7.35;;
8978;SDS011;4524;51.364;5.448;2023-11-21T04:30:21;23.35;;;6.82;;
8978;SDS011;4524;51.364;5.448;2023-11-21T04:32:49;28.85;;;7.40;;
8978;SDS011;4524;51.364;5.448;2023-11-21T04:35:18;34.30;;;7.05;;
8978;SDS011;4524;51.364;5.448;2023-11-21T04:37:46;36.45;;;8.52;;
8978;SDS011;4524;51.364;5.448;2023-11-21T04:40:14;37.53;;;7.25;;
8978;SDS011;4524;51.364;5.448;2023-11-21T04:42:42;45.38;;;8.70;;
8978;SDS011;4524;51.364;5.448;2023-11-21T04:45:10;38.38;;;7.28;;
8978;SDS011;4524;51.364;5.448;2023-11-21T04:47:40;28.20;;;7.38;;
8978;SDS011;4524;51.364;5.448;2023-11-21T04:50:10;29.63;;;7.25;;
8978;SDS011;4524;51.364;5.448;2023-11-21T04:52:38;36.80;;;7.72;;
8978;SDS011;4524;51.364;5.448;2023-11-21T04:55:06;32.28;;;7.65;;
8978;SDS011;4524;51.364;5.448;2023-11-21T04:57:36;31.90;;;8.10;;
8978;SDS011;4524;51.364;5.448;2023-11-21T05:00:05;25.10;;;7.82;;
8978;SDS011;4524;51.364;5.448;2023-11-21T05:02:34;30.08;;;7.60;;
8978;SDS011;4524;51.364;5.448;2023-11-21T05:05:04;18.60;;;6.65;;
8978;SDS011;4524;51.364;5.448;2023-11-21T05:07:33;30.75;;;6.72;;
8978;SDS011;4524;51.364;5.448;2023-11-21T05:10:03;21.48;;;6.07;;
8978;SDS011;4524;51.364;5.448;2023-11-21T05:12:34;24.60;;;6.97;;
8978;SDS011;4524;51.364;5.448;2023-11-21T05:15:04;21.35;;;7.00;;
8978;SDS011;4524;51.364;5.448;2023-11-21T05:17:36;16.75;;;7.05;;
8978;SDS011;4524;51.364;5.448;2023-11-21T05:20:07;12.68;;;6.55;;
8978;SDS011;4524;51.364;5.448;2023-11-21T05:22:36;9.95;;;5.80;;
8978;SDS011;4524;51.364;5.448;2023-11-21T05:25:05;14.68;;;6.55;;
8978;SDS011;4524;51.364;5.448;2023-11-21T05:27:34;16.13;;;7.13;;
8978;SDS011;4524;51.364;5.448;2023-11-21T05:30:02;12.07;;;7.15;;
8978;SDS011;4524;51.364;5.448;2023-11-21T05:32:31;20.60;;;6.85;;
8978;SDS011;4524;51.364;5.448;2023-11-21T05:35:00;19.73;;;9.23;;
8978;SDS011;4524;51.364;5.448;2023-11-21T05:37:29;18.48;;;6.72;;
8978;SDS011;4524;51.364;5.448;2023-11-21T05:39:58;15.57;;;7.05;;
8978;SDS011;4524;51.364;5.448;2023-11-21T05:42:31;16.67;;;7.25;;
8978;SDS011;4524;51.364;5.448;2023-11-21T05:44:58;9.63;;;6.30;;
8978;SDS011;4524;51.364;5.448;2023-11-21T05:47:36;15.80;;;7.13;;
8978;SDS011;4524;51.364;5.448;2023-11-21T05:50:06;12.30;;;7.25;;
8978;SDS011;4524;51.364;5.448;2023-11-21T05:52:37;11.20;;;7.03;;
8978;SDS011;4524;51.364;5.448;2023-11-21T05:55:06;9.43;;;6.97;;
8978;SDS011;4524;51.364;5.448;2023-11-21T05:57:35;14.95;;;8.25;;
8978;SDS011;4524;51.364;5.448;2023-11-21T06:00:04;12.75;;;6.35;;
8978;SDS011;4524;51.364;5.448;2023-11-21T06:02:38;11.98;;;6.47;;
8978;SDS011;4524;51.364;5.448;2023-11-21T06:05:07;11.40;;;7.47;;
8978;SDS011;4524;51.364;5.448;2023-11-21T06:10:07;10.07;;;6.38;;
8978;SDS011;4524;51.364;5.448;2023-11-21T06:12:36;10.32;;;6.43;;
8978;SDS011;4524;51.364;5.448;2023-11-21T06:15:04;11.60;;;7.60;;
8978;SDS011;4524;51.364;5.448;2023-11-21T06:17:35;13.30;;;7.57;;
8978;SDS011;4524;51.364;5.448;2023-11-21T06:20:05;17.70;;;8.20;;
8978;SDS011;4524;51.364;5.448;2023-11-21T06:22:37;18.77;;;9.07;;
8978;SDS011;4524;51.364;5.448;2023-11-21T06:25:07;13.38;;;7.88;;
8978;SDS011;4524;51.364;5.448;2023-11-21T06:27:37;15.93;;;7.43;;
8978;SDS011;4524;51.364;5.448;2023-11-21T06:30:25;15.57;;;8.30;;
8978;SDS011;4524;51.364;5.448;2023-11-21T06:32:53;15.00;;;8.18;;
8978;SDS011;4524;51.364;5.448;2023-11-21T06:35:22;14.90;;;9.45;;
8978;SDS011;4524;51.364;5.448;2023-11-21T06:37:52;12.27;;;7.70;;
8978;SDS011;4524;51.364;5.448;2023-11-21T06:40:20;17.00;;;7.40;;
8978;SDS011;4524;51.364;5.448;2023-11-21T06:42:48;14.60;;;7.80;;
8978;SDS011;4524;51.364;5.448;2023-11-21T06:45:17;14.98;;;7.57;;
8978;SDS011;4524;51.364;5.448;2023-11-21T06:47:45;14.32;;;7.90;;
8978;SDS011;4524;51.364;5.448;2023-11-21T06:50:13;16.10;;;8.32;;
8978;SDS011;4524;51.364;5.448;2023-11-21T06:52:41;15.70;;;8.10;;
8978;SDS011;4524;51.364;5.448;2023-11-21T06:57:39;18.35;;;8.32;;
8978;SDS011;4524;51.364;5.448;2023-11-21T07:00:08;18.80;;;8.38;;
8978;SDS011;4524;51.364;5.448;2023-11-21T07:02:36;20.15;;;10.25;;
8978;SDS011;4524;51.364;5.448;2023-11-21T07:05:06;15.77;;;8.85;;
8978;SDS011;4524;51.364;5.448;2023-11-21T07:07:34;23.30;;;9.77;;
8978;SDS011;4524;51.364;5.448;2023-11-21T07:10:04;24.65;;;9.02;;
8978;SDS011;4524;51.364;5.448;2023-11-21T07:12:34;29.90;;;9.93;;
8978;SDS011;4524;51.364;5.448;2023-11-21T07:15:02;23.02;;;10.05;;
8978;SDS011;4524;51.364;5.448;2023-11-21T07:17:31;21.73;;;8.95;;
8978;SDS011;4524;51.364;5.448;2023-11-21T07:20:05;22.08;;;9.93;;
8978;SDS011;4524;51.364;5.448;2023-11-21T07:22:33;27.38;;;9.75;;
8978;SDS011;4524;51.364;5.448;2023-11-21T07:25:01;31.05;;;10.18;;
8978;SDS011;4524;51.364;5.448;2023-11-21T07:27:49;26.73;;;9.57;;
8978;SDS011;4524;51.364;5.448;2023-11-21T07:30:17;23.75;;;9.95;;
8978;SDS011;4524;51.364;5.448;2023-11-21T07:32:45;26.58;;;10.18;;
8978;SDS011;4524;51.364;5.448;2023-11-21T07:35:14;27.65;;;10.60;;
8978;SDS011;4524;51.364;5.448;2023-11-21T07:37:42;23.90;;;9.43;;
8978;SDS011;4524;51.364;5.448;2023-11-21T07:40:11;29.02;;;10.73;;
8978;SDS011;4524;51.364;5.448;2023-11-21T07:42:39;28.10;;;10.65;;
8978;SDS011;4524;51.364;5.448;2023-11-21T07:45:10;26.88;;;11.40;;
8978;SDS011;4524;51.364;5.448;2023-11-21T07:47:39;29.17;;;10.93;;
8978;SDS011;4524;51.364;5.448;2023-11-21T07:50:07;26.15;;;11.52;;
8978;SDS011;4524;51.364;5.448;2023-11-21T07:52:36;31.23;;;12.50;;
8978;SDS011;4524;51.364;5.448;2023-11-21T07:55:04;25.23;;;11.02;;
8978;SDS011;4524;51.364;5.448;2023-11-21T07:57:34;21.95;;;10.23;;
8978;SDS011;4524;51.364;5.448;2023-11-21T08:00:02;29.13;;;10.63;;
8978;SDS011;4524;51.364;5.448;2023-11-21T08:02:39;27.88;;;10.90;;
8978;SDS011;4524;51.364;5.448;2023-11-21T08:05:09;27.95;;;11.23;;
8978;SDS011;4524;51.364;5.448;2023-11-21T08:07:50;25.42;;;11.13;;
8978;SDS011;4524;51.364;5.448;2023-11-21T08:10:18;33.40;;;12.73;;
8978;SDS011;4524;51.364;5.448;2023-11-21T08:12:47;29.10;;;12.02;;
8978;SDS011;4524;51.364;5.448;2023-11-21T08:15:17;28.40;;;13.13;;
8978;SDS011;4524;51.364;5.448;2023-11-21T08:17:47;34.05;;;13.20;;
8978;SDS011;4524;51.364;5.448;2023-11-21T08:20:15;30.77;;;11.68;;
8978;SDS011;4524;51.364;5.448;2023-11-21T08:22:44;30.52;;;11.55;;
8978;SDS011;4524;51.364;5.448;2023-11-21T08:25:14;33.50;;;12.80;;
8978;SDS011;4524;51.364;5.448;2023-11-21T08:27:43;36.97;;;14.60;;
8978;SDS011;4524;51.364;5.448;2023-11-21T08:30:11;32.17;;;13.25;;
8978;SDS011;4524;51.364;5.448;2023-11-21T08:32:40;38.13;;;13.80;;
8978;SDS011;4524;51.364;5.448;2023-11-21T08:35:10;38.13;;;12.65;;
8978;SDS011;4524;51.364;5.448;2023-11-21T08:37:39;30.70;;;11.80;;
8978;SDS011;4524;51.364;5.448;2023-11-21T08:40:07;32.05;;;13.40;;
8978;SDS011;4524;51.364;5.448;2023-11-21T08:42:38;41.80;;;13.95;;
8978;SDS011;4524;51.364;5.448;2023-11-21T08:45:07;39.58;;;15.18;;
8978;SDS011;4524;51.364;5.448;2023-11-21T08:47:35;38.22;;;14.18;;
8978;SDS011;4524;51.364;5.448;2023-11-21T08:50:04;37.97;;;14.32;;
8978;SDS011;4524;51.364;5.448;2023-11-21T08:52:35;38.60;;;15.65;;
8978;SDS011;4524;51.364;5.448;2023-11-21T08:57:50;44.20;;;14.65;;
8978;SDS011;4524;51.364;5.448;2023-11-21T09:00:18;42.30;;;16.25;;
8978;SDS011;4524;51.364;5.448;2023-11-21T09:02:48;31.48;;;12.82;;
8978;SDS011;4524;51.364;5.448;2023-11-21T09:05:16;39.33;;;12.65;;
8978;SDS011;4524;51.364;5.448;2023-11-21T09:07:46;35.80;;;14.18;;
8978;SDS011;4524;51.364;5.448;2023-11-21T09:10:15;35.45;;;14.55;;
8978;SDS011;4524;51.364;5.448;2023-11-21T09:12:43;30.67;;;13.32;;
8978;SDS011;4524;51.364;5.448;2023-11-21T09:15:11;35.28;;;13.32;;
8978;SDS011;4524;51.364;5.448;2023-11-21T09:17:40;30.40;;;12.43;;
8978;SDS011;4524;51.364;5.448;2023-11-21T09:20:09;37.47;;;13.73;;
8978;SDS011;4524;51.364;5.448;2023-11-21T09:25:07;30.88;;;12.57;;
8978;SDS011;4524;51.364;5.448;2023-11-21T09:27:36;29.13;;;12.52;;
8978;SDS011;4524;51.364;5.448;2023-11-21T09:30:04;33.83;;;13.23;;
8978;SDS011;4524;51.364;5.448;2023-11-21T09:32:35;35.42;;;13.15;;
8978;SDS011;4524;51.364;5.448;2023-11-21T09:35:04;30.40;;;11.85;;
8978;SDS011;4524;51.364;5.448;2023-11-21T09:37:34;38.00;;;14.38;;
8978;SDS011;4524;51.364;5.448;2023-11-21T09:40:04;34.67;;;13.30;;
8978;SDS011;4524;51.364;5.448;2023-11-21T09:42:40;33.40;;;13.30;;
8978;SDS011;4524;51.364;5.448;2023-11-21T09:45:17;38.35;;;13.82;;
8978;SDS011;4524;51.364;5.448;2023-11-21T09:47:50;28.75;;;12.82;;
8978;SDS011;4524;51.364;5.448;2023-11-21T09:50:20;26.52;;;12.20;;
8978;SDS011;4524;51.364;5.448;2023-11-21T09:52:49;29.80;;;14.15;;
8978;SDS011;4524;51.364;5.448;2023-11-21T09:55:27;31.52;;;13.65;;
8978;SDS011;4524;51.364;5.448;2023-11-21T09:57:58;27.13;;;12.40;;
8978;SDS011;4524;51.364;5.448;2023-11-21T10:00:27;28.02;;;12.52;;
8978;SDS011;4524;51.364;5.448;2023-11-21T10:02:57;27.33;;;13.57;;
8978;SDS011;4524;51.364;5.448;2023-11-21T10:05:26;28.70;;;12.63;;
8978;SDS011;4524;51.364;5.448;2023-11-21T10:10:23;31.95;;;13.45;;
8978;SDS011;4524;51.364;5.448;2023-11-21T10:12:55;27.33;;;14.00;;
8978;SDS011;4524;51.364;5.448;2023-11-21T10:15:25;31.52;;;13.55;;
8978;SDS011;4524;51.364;5.448;2023-11-21T10:17:54;30.83;;;14.32;;
8978;SDS011;4524;51.364;5.448;2023-11-21T10:20:22;30.17;;;13.23;;
8978;SDS011;4524;51.364;5.448;2023-11-21T10:22:52;31.70;;;13.68;;
8978;SDS011;4524;51.364;5.448;2023-11-21T10:25:20;19.77;;;12.00;;
8978;SDS011;4524;51.364;5.448;2023-11-21T10:27:48;30.45;;;13.75;;
8978;SDS011;4524;51.364;5.448;2023-11-21T10:30:18;32.20;;;12.55;;
8978;SDS011;4524;51.364;5.448;2023-11-21T10:32:47;30.10;;;12.90;;
8978;SDS011;4524;51.364;5.448;2023-11-21T10:35:16;31.48;;;11.73;;
8978;SDS011;4524;51.364;5.448;2023-11-21T10:37:44;35.38;;;13.18;;
8978;SDS011;4524;51.364;5.448;2023-11-21T10:40:23;22.25;;;11.15;;
8978;SDS011;4524;51.364;5.448;2023-11-21T10:42:55;27.52;;;13.05;;
8978;SDS011;4524;51.364;5.448;2023-11-21T10:45:56;22.88;;;11.65;;
8978;SDS011;4524;51.364;5.448;2023-11-21T10:48:27;20.65;;;11.25;;
8978;SDS011;4524;51.364;5.448;2023-11-21T10:50:55;26.45;;;11.23;;
8978;SDS011;4524;51.364;5.448;2023-11-21T10:53:24;19.25;;;10.05;;
8978;SDS011;4524;51.364;5.448;2023-11-21T10:56:01;22.85;;;11.63;;
8978;SDS011;4524;51.364;5.448;2023-11-21T10:58:32;19.13;;;9.25;;
8978;SDS011;4524;51.364;5.448;2023-11-21T11:01:03;21.67;;;9.88;;
8978;SDS011;4524;51.364;5.448;2023-11-21T11:03:35;19.95;;;9.48;;
8978;SDS011;4524;51.364;5.448;2023-11-21T11:06:04;26.27;;;10.80;;
8978;SDS011;4524;51.364;5.448;2023-11-21T11:08:37;17.00;;;9.95;;
8978;SDS011;4524;51.364;5.448;2023-11-21T11:11:06;15.35;;;8.35;;
8978;SDS011;4524;51.364;5.448;2023-11-21T11:13:37;17.15;;;8.48;;
8978;SDS011;4524;51.364;5.448;2023-11-21T11:16:05;12.90;;;6.78;;
8978;SDS011;4524;51.364;5.448;2023-11-21T11:18:38;16.95;;;8.18;;
8978;SDS011;4524;51.364;5.448;2023-11-21T11:21:07;14.77;;;7.57;;
8978;SDS011;4524;51.364;5.448;2023-11-21T11:24:13;18.60;;;8.32;;
8978;SDS011;4524;51.364;5.448;2023-11-21T11:26:52;19.63;;;10.13;;
8978;SDS011;4524;51.364;5.448;2023-11-21T11:29:31;16.95;;;8.93;;
8978;SDS011;4524;51.364;5.448;2023-11-21T11:32:09;20.63;;;8.57;;
8978;SDS011;4524;51.364;5.448;2023-11-21T11:35:06;19.88;;;9.02;;
8978;SDS011;4524;51.364;5.448;2023-11-21T11:37:43;13.50;;;7.97;;
8978;SDS011;4524;51.364;5.448;2023-11-21T11:40:11;19.05;;;9.00;;
8978;SDS011;4524;51.364;5.448;2023-11-21T11:43:01;16.02;;;9.82;;
8978;SDS011;4524;51.364;5.448;2023-11-21T11:45:31;21.40;;;9.70;;
8978;SDS011;4524;51.364;5.448;2023-11-21T11:48:01;21.60;;;8.85;;
8978;SDS011;4524;51.364;5.448;2023-11-21T11:50:32;15.65;;;8.95;;
8978;SDS011;4524;51.364;5.448;2023-11-21T11:53:11;20.88;;;8.93;;
8978;SDS011;4524;51.364;5.448;2023-11-21T11:55:40;16.35;;;8.32;;
8978;SDS011;4524;51.364;5.448;2023-11-21T11:58:08;16.40;;;8.93;;
8978;SDS011;4524;51.364;5.448;2023-11-21T12:00:36;17.60;;;9.52;;
8978;SDS011;4524;51.364;5.448;2023-11-21T12:03:06;18.48;;;9.30;;
8978;SDS011;4524;51.364;5.448;2023-11-21T12:05:37;11.60;;;7.45;;
8978;SDS011;4524;51.364;5.448;2023-11-21T12:08:07;15.93;;;8.52;;
8978;SDS011;4524;51.364;5.448;2023-11-21T12:10:35;17.80;;;9.20;;
8978;SDS011;4524;51.364;5.448;2023-11-21T12:13:06;15.25;;;6.80;;
8978;SDS011;4524;51.364;5.448;2023-11-21T12:15:36;15.18;;;8.45;;
8978;SDS011;4524;51.364;5.448;2023-11-21T12:18:06;17.17;;;7.75;;
8978;SDS011;4524;51.364;5.448;2023-11-21T12:20:35;16.38;;;8.80;;
8978;SDS011;4524;51.364;5.448;2023-11-21T12:23:26;17.08;;;7.95;;
8978;SDS011;4524;51.364;5.448;2023-11-21T12:25:55;14.95;;;8.10;;
8978;SDS011;4524;51.364;5.448;2023-11-21T12:28:24;18.42;;;8.35;;
8978;SDS011;4524;51.364;5.448;2023-11-21T12:30:52;18.05;;;7.72;;
8978;SDS011;4524;51.364;5.448;2023-11-21T12:33:36;17.02;;;8.00;;
8978;SDS011;4524;51.364;5.448;2023-11-21T12:36:04;13.80;;;7.63;;
8978;SDS011;4524;51.364;5.448;2023-11-21T12:38:38;16.75;;;6.95;;
8978;SDS011;4524;51.364;5.448;2023-11-21T12:41:06;14.90;;;7.72;;
8978;SDS011;4524;51.364;5.448;2023-11-21T12:43:34;13.68;;;6.93;;
8978;SDS011;4524;51.364;5.448;2023-11-21T12:46:05;14.52;;;7.93;;
8978;SDS011;4524;51.364;5.448;2023-11-21T12:48:36;15.48;;;7.15;;
8978;SDS011;4524;51.364;5.448;2023-11-21T12:51:05;18.92;;;7.15;;
8978;SDS011;4524;51.364;5.448;2023-11-21T12:53:34;16.25;;;8.35;;
8978;SDS011;4524;51.364;5.448;2023-11-21T12:56:07;14.07;;;7.15;;
8978;SDS011;4524;51.364;5.448;2023-11-21T12:58:37;9.77;;;5.65;;
8978;SDS011;4524;51.364;5.448;2023-11-21T13:01:06;16.85;;;9.57;;
8978;SDS011;4524;51.364;5.448;2023-11-21T13:03:38;17.38;;;8.02;;
8978;SDS011;4524;51.364;5.448;2023-11-21T13:08:35;14.65;;;7.28;;
8978;SDS011;4524;51.364;5.448;2023-11-21T13:11:06;17.73;;;9.02;;
8978;SDS011;4524;51.364;5.448;2023-11-21T13:13:35;22.13;;;8.77;;
8978;SDS011;4524;51.364;5.448;2023-11-21T13:16:06;16.95;;;8.80;;
8978;SDS011;4524;51.364;5.448;2023-11-21T13:18:36;18.13;;;9.40;;
8978;SDS011;4524;51.364;5.448;2023-11-21T13:21:08;15.93;;;7.25;;
8978;SDS011;4524;51.364;5.448;2023-11-21T13:23:39;16.75;;;8.38;;
8978;SDS011;4524;51.364;5.448;2023-11-21T13:26:10;17.55;;;8.15;;
8978;SDS011;4524;51.364;5.448;2023-11-21T13:28:38;18.90;;;8.85;;
8978;SDS011;4524;51.364;5.448;2023-11-21T13:31:12;17.35;;;8.35;;
8978;SDS011;4524;51.364;5.448;2023-11-21T13:33:52;20.27;;;9.82;;
8978;SDS011;4524;51.364;5.448;2023-11-21T13:36:25;18.85;;;9.63;;
8978;SDS011;4524;51.364;5.448;2023-11-21T13:38:57;20.35;;;9.95;;
8978;SDS011;4524;51.364;5.448;2023-11-21T13:41:26;22.02;;;9.70;;
8978;SDS011;4524;51.364;5.448;2023-11-21T13:43:58;21.30;;;9.25;;
8978;SDS011;4524;51.364;5.448;2023-11-21T13:46:35;15.20;;;6.53;;
8978;SDS011;4524;51.364;5.448;2023-11-21T13:49:04;16.85;;;9.05;;
8978;SDS011;4524;51.364;5.448;2023-11-21T13:51:36;21.73;;;9.20;;
8978;SDS011;4524;51.364;5.448;2023-11-21T13:54:07;20.90;;;9.45;;
8978;SDS011;4524;51.364;5.448;2023-11-21T13:56:38;19.90;;;9.43;;
8978;SDS011;4524;51.364;5.448;2023-11-21T13:59:07;15.48;;;8.43;;
8978;SDS011;4524;51.364;5.448;2023-11-21T14:01:44;17.17;;;8.10;;
8978;SDS011;4524;51.364;5.448;2023-11-21T14:04:22;13.38;;;8.30;;
8978;SDS011;4524;51.364;5.448;2023-11-21T14:07:21;17.17;;;7.78;;
8978;SDS011;4524;51.364;5.448;2023-11-21T14:10:02;11.35;;;6.78;;
8978;SDS011;4524;51.364;5.448;2023-11-21T14:12:34;14.93;;;7.75;;
8978;SDS011;4524;51.364;5.448;2023-11-21T14:15:05;17.02;;;7.65;;
8978;SDS011;4524;51.364;5.448;2023-11-21T14:17:36;13.65;;;8.45;;
8978;SDS011;4524;51.364;5.448;2023-11-21T14:20:08;15.93;;;8.15;;
8978;SDS011;4524;51.364;5.448;2023-11-21T14:22:42;15.90;;;8.15;;
8978;SDS011;4524;51.364;5.448;2023-11-21T14:25:10;13.18;;;7.05;;
8978;SDS011;4524;51.364;5.448;2023-11-21T14:27:40;14.95;;;9.05;;
8978;SDS011;4524;51.364;5.448;2023-11-21T14:30:08;16.42;;;8.75;;
8978;SDS011;4524;51.364;5.448;2023-11-21T14:32:39;14.23;;;8.50;;
8978;SDS011;4524;51.364;5.448;2023-11-21T14:35:08;14.77;;;8.55;;
8978;SDS011;4524;51.364;5.448;2023-11-21T14:37:37;17.05;;;8.45;;
8978;SDS011;4524;51.364;5.448;2023-11-21T14:40:06;16.15;;;8.20;;
8978;SDS011;4524;51.364;5.448;2023-11-21T14:42:35;18.33;;;10.60;;
8978;SDS011;4524;51.364;5.448;2023-11-21T14:45:08;19.15;;;10.30;;
8978;SDS011;4524;51.364;5.448;2023-11-21T14:47:39;20.50;;;9.40;;
8978;SDS011;4524;51.364;5.448;2023-11-21T14:50:13;17.20;;;9.25;;
8978;SDS011;4524;51.364;5.448;2023-11-21T14:53:01;23.80;;;9.93;;
8978;SDS011;4524;51.364;5.448;2023-11-21T14:55:32;17.27;;;9.10;;
8978;SDS011;4524;51.364;5.448;2023-11-21T14:58:09;20.38;;;9.95;;
8978;SDS011;4524;51.364;5.448;2023-11-21T15:00:43;20.65;;;9.65;;
8978;SDS011;4524;51.364;5.448;2023-11-21T15:03:12;21.08;;;10.85;;
8978;SDS011;4524;51.364;5.448;2023-11-21T15:06:01;17.98;;;9.25;;
8978;SDS011;4524;51.364;5.448;2023-11-21T15:09:03;17.23;;;7.97;;
8978;SDS011;4524;51.364;5.448;2023-11-21T15:11:49;22.63;;;10.18;;
8978;SDS011;4524;51.364;5.448;2023-11-21T15:14:21;20.65;;;9.82;;
8978;SDS011;4524;51.364;5.448;2023-11-21T15:16:52;19.35;;;9.23;;
8978;SDS011;4524;51.364;5.448;2023-11-21T15:19:26;16.52;;;9.85;;
8978;SDS011;4524;51.364;5.448;2023-11-21T15:21:55;20.60;;;9.35;;
8978;SDS011;4524;51.364;5.448;2023-11-21T15:24:23;14.57;;;8.27;;
8978;SDS011;4524;51.364;5.448;2023-11-21T15:26:51;21.65;;;9.63;;
8978;SDS011;4524;51.364;5.448;2023-11-21T15:29:19;16.27;;;8.57;;
8978;SDS011;4524;51.364;5.448;2023-11-21T15:31:48;15.15;;;8.80;;
8978;SDS011;4524;51.364;5.448;2023-11-21T15:34:17;17.33;;;8.88;;
8978;SDS011;4524;51.364;5.448;2023-11-21T15:36:45;15.77;;;8.15;;
8978;SDS011;4524;51.364;5.448;2023-11-21T15:39:16;17.13;;;8.57;;